Погода Кананеяна 2 недели

Сан-Паулу, Бразилия

15 - 27 июня
  • 15июня
    Сегодня
    +16°
    +30°
    Ясно и безоблачно
    ВремяПогодаТемператураВлажностьДавлениеВетер, м/сВероятность осадков
    00:00Ясно и безоблачно+18°C87 %762 мм1.3 м/с5 %
    03:00Ясно и безоблачно+17°C91 %761 мм2.0 м/с5 %
    06:00Ясно и безоблачно+18°C83 %761 мм3.4 м/с5 %
    09:00Ясно и безоблачно+21°C74 %763 мм2.5 м/с5 %
    12:00Ясно и безоблачно+28°C56 %762 мм3.2 м/с5 %
    15:00Ясно и безоблачно+30°C58 %760 мм3.1 м/с5 %
    18:00Ясно и безоблачно+24°C81 %760 мм1.9 м/с5 %
    21:00Ясно и безоблачно+21°C92 %761 мм1.3 м/с5 %
  • 16июня
    Воскресенье
    +16°
    +30°
    Ясно и безоблачно
    ВремяПогодаТемператураВлажностьДавлениеВетер, м/сВероятность осадков
    00:00Ясно и безоблачно+19°C93 %761 мм1.4 м/с5 %
    03:00Небольшая облачность+18°C94 %760 мм1.8 м/с5 %
    06:00Практически безоблачно+17°C91 %760 мм1.8 м/с5 %
    09:00Ясно и безоблачно+21°C87 %761 мм0.4 м/с5 %
    12:00Ясно и безоблачно+28°C70 %761 мм1.4 м/с5 %
    15:00Ясно и безоблачно+29°C75 %759 мм2.2 м/с5 %
    18:00Ясно и безоблачно+23°C90 %759 мм1.0 м/с5 %
    21:00Ясно и безоблачно+21°C94 %759 мм1.3 м/с5 %
  • 17июня
    Понедельник
    +14°
    +31°
    Практически безоблачно
    ВремяПогодаТемператураВлажностьДавлениеВетер, м/сВероятность осадков
    00:00Облачно с прояснениями+19°C98 %759 мм0.8 м/с5 %
    03:00Облачно с прояснениями+17°C98 %758 мм1.3 м/с5 %
    06:00Небольшая облачность+17°C95 %758 мм1.0 м/с5 %
    09:00Практически безоблачно+20°C87 %759 мм1.2 м/с5 %
    12:00Ясно и безоблачно+30°C55 %757 мм4.3 м/с5 %
    15:00Практически безоблачно+31°C55 %756 мм3.0 м/с5 %
    18:00Ясно и безоблачно+25°C80 %756 мм2.3 м/с5 %
    21:00Ясно и безоблачно+20°C90 %757 мм1.3 м/с5 %
  • 18июня
    Вторник
    +16°
    +29°
    Ясно и безоблачно
    ВремяПогодаТемператураВлажностьДавлениеВетер, м/сВероятность осадков
    00:00Практически безоблачно+18°C91 %757 мм1.7 м/с5 %
    03:00Практически безоблачно+16°C86 %757 мм2.0 м/с5 %
    06:00Ясно и безоблачно+15°C81 %757 мм2.7 м/с5 %
    09:00Ясно и безоблачно+22°C61 %758 мм4.1 м/с5 %
    12:00Ясно и безоблачно+28°C52 %758 мм2.4 м/с5 %
    15:00Ясно и безоблачно+28°C47 %756 мм2.8 м/с5 %
    18:00Ясно и безоблачно+22°C74 %757 мм2.6 м/с5 %
    21:00Ясно и безоблачно+20°C84 %758 мм1.5 м/с5 %
Мы используем cookies
Соглашаюсь